sensor_id;sensor_type;location;lat;lon;timestamp;pressure;altitude;pressure_sealevel;temperature;humidity
45523;BME280;31254;51.680;5.394;2022-10-17T00:00:41;101613.75;;;14.62;89.60
45523;BME280;31254;51.680;5.394;2022-10-17T00:03:09;101606.28;;;14.55;89.66
45523;BME280;31254;51.680;5.394;2022-10-17T00:05:40;101613.16;;;14.59;89.72
45523;BME280;31254;51.680;5.394;2022-10-17T00:08:11;101601.09;;;14.52;90.13
45523;BME280;31254;51.680;5.394;2022-10-17T00:10:39;101612.03;;;14.61;89.75
45523;BME280;31254;51.680;5.394;2022-10-17T00:13:07;101613.94;;;14.61;90.04
45523;BME280;31254;51.680;5.394;2022-10-17T00:15:34;101582.66;;;14.44;90.13
45523;BME280;31254;51.680;5.394;2022-10-17T00:18:01;101601.34;;;14.58;90.19
45523;BME280;31254;51.680;5.394;2022-10-17T00:20:28;101600.06;;;14.53;90.30
45523;BME280;31254;51.680;5.394;2022-10-17T00:22:58;101582.97;;;14.41;90.31
45523;BME280;31254;51.680;5.394;2022-10-17T00:25:25;101560.47;;;14.37;90.63
45523;BME280;31254;51.680;5.394;2022-10-17T00:27:54;101586.34;;;14.53;90.75
45523;BME280;31254;51.680;5.394;2022-10-17T00:30:23;101591.19;;;14.59;90.54
45523;BME280;31254;51.680;5.394;2022-10-17T00:32:50;101567.28;;;14.51;90.50
45523;BME280;31254;51.680;5.394;2022-10-17T00:35:17;101578.09;;;14.53;90.73
45523;BME280;31254;51.680;5.394;2022-10-17T00:37:44;101549.88;;;14.42;90.59
45523;BME280;31254;51.680;5.394;2022-10-17T00:40:11;101567.84;;;14.55;90.53
45523;BME280;31254;51.680;5.394;2022-10-17T00:42:39;101570.03;;;14.51;90.95
45523;BME280;31254;51.680;5.394;2022-10-17T00:47:44;101566.91;;;14.46;90.98
45523;BME280;31254;51.680;5.394;2022-10-17T00:50:14;101586.34;;;14.53;91.29
45523;BME280;31254;51.680;5.394;2022-10-17T00:52:41;101582.59;;;14.54;91.19
45523;BME280;31254;51.680;5.394;2022-10-17T00:55:26;101580.69;;;14.54;91.21
45523;BME280;31254;51.680;5.394;2022-10-17T00:57:56;101590.34;;;14.58;91.33
45523;BME280;31254;51.680;5.394;2022-10-17T01:00:25;101581.81;;;14.61;91.22
45523;BME280;31254;51.680;5.394;2022-10-17T01:02:52;101577.03;;;14.63;91.22
45523;BME280;31254;51.680;5.394;2022-10-17T01:05:20;101571.53;;;14.63;91.45
45523;BME280;31254;51.680;5.394;2022-10-17T01:07:48;101570.69;;;14.63;91.75
45523;BME280;31254;51.680;5.394;2022-10-17T01:10:16;101551.63;;;14.61;91.80
45523;BME280;31254;51.680;5.394;2022-10-17T01:13:10;101552.31;;;14.63;91.91
45523;BME280;31254;51.680;5.394;2022-10-17T01:27:21;101563.91;;;14.75;91.98
45523;BME280;31254;51.680;5.394;2022-10-17T01:32:55;101541.03;;;14.67;92.41
45523;BME280;31254;51.680;5.394;2022-10-17T01:38:22;101563.81;;;14.85;92.50
45523;BME280;31254;51.680;5.394;2022-10-17T01:41:15;101549.22;;;14.85;92.47
45523;BME280;31254;51.680;5.394;2022-10-17T01:43:54;101552.34;;;14.90;92.32
45523;BME280;31254;51.680;5.394;2022-10-17T01:46:28;101551.47;;;14.89;92.61
45523;BME280;31254;51.680;5.394;2022-10-17T01:48:58;101550.47;;;14.90;92.73
45523;BME280;31254;51.680;5.394;2022-10-17T01:56:40;101554.91;;;14.91;92.93
45523;BME280;31254;51.680;5.394;2022-10-17T01:59:21;101536.69;;;14.82;93.09
45523;BME280;31254;51.680;5.394;2022-10-17T02:01:51;101549.25;;;14.93;92.97
45523;BME280;31254;51.680;5.394;2022-10-17T02:04:19;101558.75;;;14.98;93.14
45523;BME280;31254;51.680;5.394;2022-10-17T02:06:46;101559.63;;;14.99;93.36
45523;BME280;31254;51.680;5.394;2022-10-17T02:09:25;101529.66;;;14.88;93.48
45523;BME280;31254;51.680;5.394;2022-10-17T02:12:31;101545.19;;;14.97;93.52
45523;BME280;31254;51.680;5.394;2022-10-17T02:15:17;101545.34;;;14.95;93.49
45523;BME280;31254;51.680;5.394;2022-10-17T02:20:27;101531.41;;;14.89;94.03
45523;BME280;31254;51.680;5.394;2022-10-17T02:23:18;101543.94;;;14.91;94.24
45523;BME280;31254;51.680;5.394;2022-10-17T02:26:10;101514.00;;;14.80;94.17
45523;BME280;31254;51.680;5.394;2022-10-17T02:29:01;101537.75;;;14.89;94.52
45523;BME280;31254;51.680;5.394;2022-10-17T02:31:35;101520.00;;;14.84;94.41
45523;BME280;31254;51.680;5.394;2022-10-17T02:34:08;101504.69;;;14.73;94.41
45523;BME280;31254;51.680;5.394;2022-10-17T02:36:48;101535.47;;;14.85;94.98
45523;BME280;31254;51.680;5.394;2022-10-17T02:39:19;101529.13;;;14.84;94.84
45523;BME280;31254;51.680;5.394;2022-10-17T02:41:49;101510.50;;;14.70;95.02
45523;BME280;31254;51.680;5.394;2022-10-17T02:44:17;101512.75;;;14.74;94.77
45523;BME280;31254;51.680;5.394;2022-10-17T02:46:52;101535.31;;;14.86;95.29
45523;BME280;31254;51.680;5.394;2022-10-17T02:49:30;101529.81;;;14.86;95.06
45523;BME280;31254;51.680;5.394;2022-10-17T02:55:23;101535.31;;;14.86;95.03
45523;BME280;31254;51.680;5.394;2022-10-17T02:58:19;101534.63;;;14.84;94.99
45523;BME280;31254;51.680;5.394;2022-10-17T03:00:47;101538.38;;;14.83;95.21
45523;BME280;31254;51.680;5.394;2022-10-17T03:03:32;101504.78;;;14.63;95.35
45523;BME280;31254;51.680;5.394;2022-10-17T03:06:04;101522.53;;;14.77;95.40
45523;BME280;31254;51.680;5.394;2022-10-17T03:08:30;101534.94;;;14.81;95.32
45523;BME280;31254;51.680;5.394;2022-10-17T03:11:06;101535.00;;;14.89;95.55
45523;BME280;31254;51.680;5.394;2022-10-17T03:13:33;101540.19;;;14.92;95.40
45523;BME280;31254;51.680;5.394;2022-10-17T03:16:05;101531.41;;;14.89;95.54
45523;BME280;31254;51.680;5.394;2022-10-17T03:18:32;101519.53;;;14.88;95.64
45523;BME280;31254;51.680;5.394;2022-10-17T03:21:01;101532.31;;;14.97;95.58
45523;BME280;31254;51.680;5.394;2022-10-17T03:23:27;101525.78;;;14.98;95.60
45523;BME280;31254;51.680;5.394;2022-10-17T03:25:54;101523.75;;;15.01;95.71
45523;BME280;31254;51.680;5.394;2022-10-17T03:28:21;101519.63;;;15.05;95.93
45523;BME280;31254;51.680;5.394;2022-10-17T03:30:47;101514.69;;;15.08;95.82
45523;BME280;31254;51.680;5.394;2022-10-17T03:33:14;101503.81;;;14.98;96.09
45523;BME280;31254;51.680;5.394;2022-10-17T03:35:40;101518.97;;;15.11;95.99
45523;BME280;31254;51.680;5.394;2022-10-17T03:38:07;101525.56;;;15.18;96.34
45523;BME280;31254;51.680;5.394;2022-10-17T03:40:34;101490.78;;;15.01;96.06
45523;BME280;31254;51.680;5.394;2022-10-17T03:43:01;101507.28;;;15.09;96.26
45523;BME280;31254;51.680;5.394;2022-10-17T03:45:32;101502.81;;;15.08;96.22
45523;BME280;31254;51.680;5.394;2022-10-17T03:47:59;101502.00;;;15.15;96.30
45523;BME280;31254;51.680;5.394;2022-10-17T03:50:25;101500.09;;;15.16;96.23
45523;BME280;31254;51.680;5.394;2022-10-17T03:52:52;101499.97;;;15.26;96.23
45523;BME280;31254;51.680;5.394;2022-10-17T03:55:18;101514.31;;;15.38;96.39
45523;BME280;31254;51.680;5.394;2022-10-17T03:57:45;101505.72;;;15.32;96.39
45523;BME280;31254;51.680;5.394;2022-10-17T04:00:12;101509.78;;;15.28;96.14
45523;BME280;31254;51.680;5.394;2022-10-17T04:02:41;101527.06;;;15.47;96.59
45523;BME280;31254;51.680;5.394;2022-10-17T04:05:10;101524.13;;;15.48;96.31
45523;BME280;31254;51.680;5.394;2022-10-17T04:07:37;101534.78;;;15.51;96.29
45523;BME280;31254;51.680;5.394;2022-10-17T04:10:04;101532.06;;;15.51;96.51
45523;BME280;31254;51.680;5.394;2022-10-17T04:12:31;101547.03;;;15.57;96.63
45523;BME280;31254;51.680;5.394;2022-10-17T04:14:58;101548.56;;;15.60;96.71
45523;BME280;31254;51.680;5.394;2022-10-17T04:17:29;101533.44;;;15.56;96.65
45523;BME280;31254;51.680;5.394;2022-10-17T04:20:03;101518.47;;;15.50;96.68
45523;BME280;31254;51.680;5.394;2022-10-17T04:22:30;101519.53;;;15.57;96.45
45523;BME280;31254;51.680;5.394;2022-10-17T04:24:57;101534.34;;;15.64;96.94
45523;BME280;31254;51.680;5.394;2022-10-17T04:27:24;101534.66;;;15.61;96.96
45523;BME280;31254;51.680;5.394;2022-10-17T04:29:50;101567.34;;;15.72;96.84
45523;BME280;31254;51.680;5.394;2022-10-17T04:32:17;101561.50;;;15.67;97.01
45523;BME280;31254;51.680;5.394;2022-10-17T04:34:47;101568.56;;;15.70;97.65
45523;BME280;31254;51.680;5.394;2022-10-17T04:37:15;101565.66;;;15.71;97.21
45523;BME280;31254;51.680;5.394;2022-10-17T04:39:42;101558.41;;;15.70;97.12
45523;BME280;31254;51.680;5.394;2022-10-17T04:42:09;101575.44;;;15.74;97.50
45523;BME280;31254;51.680;5.394;2022-10-17T04:44:38;101580.78;;;15.76;97.50
45523;BME280;31254;51.680;5.394;2022-10-17T04:47:06;101563.91;;;15.62;97.39
45523;BME280;31254;51.680;5.394;2022-10-17T04:49:33;101598.34;;;15.75;97.69
45523;BME280;31254;51.680;5.394;2022-10-17T04:52:00;101583.66;;;15.66;97.73
45523;BME280;31254;51.680;5.394;2022-10-17T04:54:29;101587.66;;;15.71;97.94
45523;BME280;31254;51.680;5.394;2022-10-17T04:56:55;101578.19;;;15.74;97.29
45523;BME280;31254;51.680;5.394;2022-10-17T04:59:22;101608.19;;;15.85;97.65
45523;BME280;31254;51.680;5.394;2022-10-17T05:01:49;101599.34;;;15.73;98.07
45523;BME280;31254;51.680;5.394;2022-10-17T05:04:21;101590.25;;;15.73;98.21
45523;BME280;31254;51.680;5.394;2022-10-17T05:06:50;101571.63;;;15.59;98.04
45523;BME280;31254;51.680;5.394;2022-10-17T05:09:17;101589.63;;;15.79;98.22
45523;BME280;31254;51.680;5.394;2022-10-17T05:11:44;101587.56;;;15.81;98.08
45523;BME280;31254;51.680;5.394;2022-10-17T05:14:11;101583.59;;;15.84;98.21
45523;BME280;31254;51.680;5.394;2022-10-17T05:16:38;101577.94;;;15.85;98.13
45523;BME280;31254;51.680;5.394;2022-10-17T05:19:05;101581.41;;;15.96;97.81
45523;BME280;31254;51.680;5.394;2022-10-17T05:21:37;101585.53;;;15.92;97.96
45523;BME280;31254;51.680;5.394;2022-10-17T05:24:10;101580.50;;;15.87;97.99
45523;BME280;31254;51.680;5.394;2022-10-17T05:26:37;101596.88;;;15.97;97.77
45523;BME280;31254;51.680;5.394;2022-10-17T05:29:06;101577.41;;;15.82;97.97
45523;BME280;31254;51.680;5.394;2022-10-17T05:31:33;101583.59;;;15.84;97.83
45523;BME280;31254;51.680;5.394;2022-10-17T05:34:01;101606.88;;;16.06;97.82
45523;BME280;31254;51.680;5.394;2022-10-17T05:36:28;101609.81;;;16.04;97.89
45523;BME280;31254;51.680;5.394;2022-10-17T05:38:55;101609.81;;;16.04;97.97
45523;BME280;31254;51.680;5.394;2022-10-17T05:41:21;101588.28;;;15.92;97.91
45523;BME280;31254;51.680;5.394;2022-10-17T05:43:48;101588.28;;;15.92;97.79
45523;BME280;31254;51.680;5.394;2022-10-17T05:46:16;101565.03;;;15.78;97.97
45523;BME280;31254;51.680;5.394;2022-10-17T05:48:43;101607.56;;;16.00;98.12
45523;BME280;31254;51.680;5.394;2022-10-17T05:51:10;101587.41;;;15.91;98.26
45523;BME280;31254;51.680;5.394;2022-10-17T05:53:39;101598.09;;;15.94;98.67
45523;BME280;31254;51.680;5.394;2022-10-17T05:56:09;101602.94;;;16.00;98.32
45523;BME280;31254;51.680;5.394;2022-10-17T05:58:39;101618.75;;;16.06;98.62
45523;BME280;31254;51.680;5.394;2022-10-17T06:01:18;101606.03;;;15.97;98.37
45523;BME280;31254;51.680;5.394;2022-10-17T06:03:45;101617.56;;;16.09;98.51
45523;BME280;31254;51.680;5.394;2022-10-17T06:06:13;101587.25;;;15.93;98.67
45523;BME280;31254;51.680;5.394;2022-10-17T06:08:40;101607.91;;;16.05;98.61
45523;BME280;31254;51.680;5.394;2022-10-17T06:11:08;101620.84;;;16.13;98.74
45523;BME280;31254;51.680;5.394;2022-10-17T06:13:36;101595.38;;;16.02;98.71
45523;BME280;31254;51.680;5.394;2022-10-17T06:16:06;101595.38;;;16.02;98.56
45523;BME280;31254;51.680;5.394;2022-10-17T06:18:35;101623.94;;;16.18;98.77
45523;BME280;31254;51.680;5.394;2022-10-17T06:21:04;101594.31;;;16.03;98.75
45523;BME280;31254;51.680;5.394;2022-10-17T06:23:32;101627.75;;;16.25;98.62
45523;BME280;31254;51.680;5.394;2022-10-17T06:26:00;101624.84;;;16.26;98.67
45523;BME280;31254;51.680;5.394;2022-10-17T06:28:27;101632.94;;;16.28;98.64
45523;BME280;31254;51.680;5.394;2022-10-17T06:30:56;101631.56;;;16.32;98.64
45523;BME280;31254;51.680;5.394;2022-10-17T06:33:25;101622.59;;;16.30;98.66
45523;BME280;31254;51.680;5.394;2022-10-17T06:35:53;101624.69;;;16.36;98.48
45523;BME280;31254;51.680;5.394;2022-10-17T06:38:21;101635.38;;;16.48;99.58
45523;BME280;31254;51.680;5.394;2022-10-17T06:40:49;101630.38;;;16.43;99.26
45523;BME280;31254;51.680;5.394;2022-10-17T06:43:15;101621.94;;;16.36;99.06
45523;BME280;31254;51.680;5.394;2022-10-17T06:45:44;101626.06;;;16.40;98.99
45523;BME280;31254;51.680;5.394;2022-10-17T06:48:11;101647.59;;;16.53;98.85
45523;BME280;31254;51.680;5.394;2022-10-17T06:50:39;101632.78;;;16.46;98.84
45523;BME280;31254;51.680;5.394;2022-10-17T06:53:06;101644.84;;;16.53;98.66
45523;BME280;31254;51.680;5.394;2022-10-17T06:55:33;101654.00;;;16.62;98.56
45523;BME280;31254;51.680;5.394;2022-10-17T06:57:59;101663.13;;;16.71;98.36
45523;BME280;31254;51.680;5.394;2022-10-17T07:00:28;101629.88;;;16.56;98.25
45523;BME280;31254;51.680;5.394;2022-10-17T07:02:58;101633.66;;;16.63;98.30
45523;BME280;31254;51.680;5.394;2022-10-17T07:05:27;101661.94;;;16.81;98.11
45523;BME280;31254;51.680;5.394;2022-10-17T07:07:54;101651.06;;;16.80;97.87
45523;BME280;31254;51.680;5.394;2022-10-17T07:10:21;101638.50;;;16.77;97.99
45523;BME280;31254;51.680;5.394;2022-10-17T07:12:48;101663.16;;;16.95;97.83
45523;BME280;31254;51.680;5.394;2022-10-17T07:15:17;101640.44;;;16.85;97.67
45523;BME280;31254;51.680;5.394;2022-10-17T07:17:47;101649.38;;;16.95;97.65
45523;BME280;31254;51.680;5.394;2022-10-17T07:20:16;101663.69;;;17.07;97.26
45523;BME280;31254;51.680;5.394;2022-10-17T07:22:48;101657.47;;;17.13;97.37
45523;BME280;31254;51.680;5.394;2022-10-17T07:25:15;101664.53;;;17.16;97.39
45523;BME280;31254;51.680;5.394;2022-10-17T07:27:41;101666.25;;;17.17;97.38
45523;BME280;31254;51.680;5.394;2022-10-17T07:30:09;101682.44;;;17.20;97.51
45523;BME280;31254;51.680;5.394;2022-10-17T07:32:35;101693.66;;;17.18;97.47
45523;BME280;31254;51.680;5.394;2022-10-17T07:35:03;101685.75;;;17.07;97.62
45523;BME280;31254;51.680;5.394;2022-10-17T07:37:30;101714.00;;;17.17;97.50
45523;BME280;31254;51.680;5.394;2022-10-17T07:39:57;101735.88;;;17.19;97.67
45523;BME280;31254;51.680;5.394;2022-10-17T07:42:26;101738.47;;;17.12;97.47
45523;BME280;31254;51.680;5.394;2022-10-17T07:44:54;101754.66;;;17.07;97.65
45523;BME280;31254;51.680;5.394;2022-10-17T07:47:23;101809.47;;;17.18;97.57
45523;BME280;31254;51.680;5.394;2022-10-17T07:49:50;101823.25;;;17.18;97.25
45523;BME280;31254;51.680;5.394;2022-10-17T07:52:16;101844.06;;;17.21;97.56
45523;BME280;31254;51.680;5.394;2022-10-17T07:54:43;101852.53;;;17.28;98.59
45523;BME280;31254;51.680;5.394;2022-10-17T07:57:10;101849.44;;;17.23;98.57
45523;BME280;31254;51.680;5.394;2022-10-17T07:59:36;101835.16;;;17.44;99.01
45523;BME280;31254;51.680;5.394;2022-10-17T08:02:16;101808.91;;;17.23;99.25
45523;BME280;31254;51.680;5.394;2022-10-17T08:04:44;101808.59;;;17.26;99.05
45523;BME280;31254;51.680;5.394;2022-10-17T08:07:10;101784.28;;;17.13;98.81
45523;BME280;31254;51.680;5.394;2022-10-17T08:09:50;101795.66;;;17.18;98.65
45523;BME280;31254;51.680;5.394;2022-10-17T08:12:18;101806.53;;;17.28;98.71
45523;BME280;31254;51.680;5.394;2022-10-17T08:14:44;101790.84;;;17.12;98.70
45523;BME280;31254;51.680;5.394;2022-10-17T08:17:11;101812.22;;;17.43;100.00
45523;BME280;31254;51.680;5.394;2022-10-17T08:19:39;101814.09;;;17.34;99.56
45523;BME280;31254;51.680;5.394;2022-10-17T08:22:06;101841.50;;;17.36;99.65
45523;BME280;31254;51.680;5.394;2022-10-17T08:24:33;101842.41;;;17.36;99.30
45523;BME280;31254;51.680;5.394;2022-10-17T08:27:00;101850.47;;;17.30;99.14
45523;BME280;31254;51.680;5.394;2022-10-17T08:29:27;101914.25;;;17.35;99.33
45523;BME280;31254;51.680;5.394;2022-10-17T08:31:53;101865.72;;;16.91;99.35
45523;BME280;31254;51.680;5.394;2022-10-17T08:34:26;101901.47;;;17.26;99.29
45523;BME280;31254;51.680;5.394;2022-10-17T08:36:53;101892.53;;;17.24;99.43
45523;BME280;31254;51.680;5.394;2022-10-17T08:39:20;101878.22;;;17.28;98.99
45523;BME280;31254;51.680;5.394;2022-10-17T08:47:38;101885.47;;;17.38;99.10
45523;BME280;31254;51.680;5.394;2022-10-17T08:50:24;101845.16;;;17.36;99.21
45523;BME280;31254;51.680;5.394;2022-10-17T08:53:03;101876.84;;;17.41;99.12
45523;BME280;31254;51.680;5.394;2022-10-17T08:55:39;101868.75;;;17.39;99.24
45523;BME280;31254;51.680;5.394;2022-10-17T08:58:32;101871.69;;;17.38;99.38
45523;BME280;31254;51.680;5.394;2022-10-17T09:01:27;101852.53;;;17.36;99.82
45523;BME280;31254;51.680;5.394;2022-10-17T09:07:11;101863.75;;;17.43;99.33
45523;BME280;31254;51.680;5.394;2022-10-17T09:09:53;101881.34;;;17.42;99.39
45523;BME280;31254;51.680;5.394;2022-10-17T09:13:04;101865.13;;;17.39;99.42
45523;BME280;31254;51.680;5.394;2022-10-17T09:15:46;101896.50;;;17.38;99.58
45523;BME280;31254;51.680;5.394;2022-10-17T09:18:21;101872.88;;;17.18;99.73
45523;BME280;31254;51.680;5.394;2022-10-17T09:20:54;101909.06;;;17.24;99.91
45523;BME280;31254;51.680;5.394;2022-10-17T09:23:26;101946.31;;;17.36;99.98
45523;BME280;31254;51.680;5.394;2022-10-17T09:25:59;101928.06;;;17.35;100.00
45523;BME280;31254;51.680;5.394;2022-10-17T09:28:37;101905.59;;;17.30;100.00
45523;BME280;31254;51.680;5.394;2022-10-17T09:31:05;101894.47;;;17.40;99.99
45523;BME280;31254;51.680;5.394;2022-10-17T09:33:45;101900.66;;;17.42;100.00
45523;BME280;31254;51.680;5.394;2022-10-17T09:36:27;101853.78;;;17.42;99.89
45523;BME280;31254;51.680;5.394;2022-10-17T09:38:57;101796.00;;;17.15;99.59
45523;BME280;31254;51.680;5.394;2022-10-17T09:41:41;101838.06;;;17.42;99.72
45523;BME280;31254;51.680;5.394;2022-10-17T09:44:32;101869.81;;;17.54;99.52
45523;BME280;31254;51.680;5.394;2022-10-17T09:49:48;101883.44;;;17.64;99.34
45523;BME280;31254;51.680;5.394;2022-10-17T09:52:41;101884.63;;;17.62;99.82
45523;BME280;31254;51.680;5.394;2022-10-17T09:55:37;101916.88;;;17.61;99.87
45523;BME280;31254;51.680;5.394;2022-10-17T09:58:07;101897.22;;;17.56;99.81
45523;BME280;31254;51.680;5.394;2022-10-17T10:00:39;101903.25;;;17.60;100.00
45523;BME280;31254;51.680;5.394;2022-10-17T10:03:18;101890.16;;;17.62;99.81
45523;BME280;31254;51.680;5.394;2022-10-17T10:08:56;101866.38;;;17.61;99.71
45523;BME280;31254;51.680;5.394;2022-10-17T10:11:54;101900.84;;;17.73;99.72
45523;BME280;31254;51.680;5.394;2022-10-17T10:14:27;101902.59;;;17.74;99.76
45523;BME280;31254;51.680;5.394;2022-10-17T10:16:54;101906.19;;;17.75;99.43
45523;BME280;31254;51.680;5.394;2022-10-17T10:19:30;101901.03;;;17.80;99.47
45523;BME280;31254;51.680;5.394;2022-10-17T10:22:04;101899.69;;;17.92;99.08
45523;BME280;31254;51.680;5.394;2022-10-17T10:24:31;101919.19;;;17.99;98.86
45523;BME280;31254;51.680;5.394;2022-10-17T10:27:01;101897.94;;;17.91;98.86
45523;BME280;31254;51.680;5.394;2022-10-17T10:29:39;101933.66;;;18.09;99.07
45523;BME280;31254;51.680;5.394;2022-10-17T10:34:34;101950.38;;;18.16;98.64
45523;BME280;31254;51.680;5.394;2022-10-17T10:37:15;101920.56;;;18.03;98.91
45523;BME280;31254;51.680;5.394;2022-10-17T10:39:50;101969.19;;;18.20;98.75
45523;BME280;31254;51.680;5.394;2022-10-17T10:44:52;101954.22;;;18.06;98.64
45523;BME280;31254;51.680;5.394;2022-10-17T10:47:27;101986.13;;;18.17;99.10
45523;BME280;31254;51.680;5.394;2022-10-17T10:55:52;101983.19;;;17.94;99.50
45523;BME280;31254;51.680;5.394;2022-10-17T10:58:29;102011.31;;;18.06;99.51
45523;BME280;31254;51.680;5.394;2022-10-17T11:01:10;101986.91;;;17.85;99.61
45523;BME280;31254;51.680;5.394;2022-10-17T11:03:46;102009.59;;;17.97;99.78
45523;BME280;31254;51.680;5.394;2022-10-17T11:06:21;102018.56;;;17.99;99.55
45523;BME280;31254;51.680;5.394;2022-10-17T11:09:08;102020.13;;;18.01;99.62
45523;BME280;31254;51.680;5.394;2022-10-17T11:11:41;101986.75;;;17.86;99.65
45523;BME280;31254;51.680;5.394;2022-10-17T11:14:16;102029.94;;;18.04;99.41
45523;BME280;31254;51.680;5.394;2022-10-17T11:16:53;102010.78;;;17.94;99.38
45523;BME280;31254;51.680;5.394;2022-10-17T11:19:27;102029.59;;;18.07;99.58
45523;BME280;31254;51.680;5.394;2022-10-17T11:22:06;102027.38;;;18.11;99.48
45523;BME280;31254;51.680;5.394;2022-10-17T11:24:53;102008.19;;;18.01;99.51
45523;BME280;31254;51.680;5.394;2022-10-17T11:27:23;102025.09;;;18.06;99.08
45523;BME280;31254;51.680;5.394;2022-10-17T11:29:51;102047.91;;;18.16;99.49
45523;BME280;31254;51.680;5.394;2022-10-17T11:32:27;102031.00;;;18.03;99.59
45523;BME280;31254;51.680;5.394;2022-10-17T11:35:18;102054.63;;;18.14;99.57
45523;BME280;31254;51.680;5.394;2022-10-17T11:37:51;102025.63;;;17.93;99.62
45523;BME280;31254;51.680;5.394;2022-10-17T11:40:33;102053.78;;;18.05;99.61
45523;BME280;31254;51.680;5.394;2022-10-17T11:43:18;102070.69;;;18.10;99.69
45523;BME280;31254;51.680;5.394;2022-10-17T11:45:52;102047.34;;;17.96;99.88
45523;BME280;31254;51.680;5.394;2022-10-17T11:48:33;102074.13;;;18.12;99.88
45523;BME280;31254;51.680;5.394;2022-10-17T11:51:11;102057.56;;;18.04;99.73
45523;BME280;31254;51.680;5.394;2022-10-17T11:54:13;102077.06;;;18.19;99.72
45523;BME280;31254;51.680;5.394;2022-10-17T12:07:54;102074.19;;;18.37;99.22
45523;BME280;31254;51.680;5.394;2022-10-17T12:19:19;102079.19;;;18.66;98.05
45523;BME280;31254;51.680;5.394;2022-10-17T12:21:58;102079.69;;;18.78;97.80
45523;BME280;31254;51.680;5.394;2022-10-17T12:24:41;102078.34;;;18.90;97.45
45523;BME280;31254;51.680;5.394;2022-10-17T12:27:44;102077.09;;;18.93;97.51
45523;BME280;31254;51.680;5.394;2022-10-17T12:30:22;102075.56;;;18.90;97.26
45523;BME280;31254;51.680;5.394;2022-10-17T12:33:16;102040.84;;;18.71;97.50
45523;BME280;31254;51.680;5.394;2022-10-17T12:49:36;102086.91;;;19.12;96.62
45523;BME280;31254;51.680;5.394;2022-10-17T12:54:39;102062.56;;;18.99;96.46
45523;BME280;31254;51.680;5.394;2022-10-17T13:00:03;102088.69;;;18.88;97.40
45523;BME280;31254;51.680;5.394;2022-10-17T13:02:31;102116.84;;;19.00;97.31
45523;BME280;31254;51.680;5.394;2022-10-17T13:05:06;102123.94;;;18.94;97.47
45523;BME280;31254;51.680;5.394;2022-10-17T13:07:40;102120.81;;;18.89;97.69
45523;BME280;31254;51.680;5.394;2022-10-17T13:10:18;102136.56;;;18.89;97.63
45523;BME280;31254;51.680;5.394;2022-10-17T13:12:47;102146.22;;;18.85;97.66
45523;BME280;31254;51.680;5.394;2022-10-17T13:15:18;102137.06;;;18.76;98.03
45523;BME280;31254;51.680;5.394;2022-10-17T13:17:54;102153.97;;;18.81;97.92
45523;BME280;31254;51.680;5.394;2022-10-17T13:20:23;102144.63;;;18.82;97.63
45523;BME280;31254;51.680;5.394;2022-10-17T13:22:57;102149.47;;;18.80;97.93
45523;BME280;31254;51.680;5.394;2022-10-17T13:25:25;102138.75;;;18.77;97.91
45523;BME280;31254;51.680;5.394;2022-10-17T13:28:04;102142.22;;;18.79;97.93
45523;BME280;31254;51.680;5.394;2022-10-17T13:30:33;102143.78;;;18.81;97.84
45523;BME280;31254;51.680;5.394;2022-10-17T13:33:02;102156.78;;;18.89;97.53
45523;BME280;31254;51.680;5.394;2022-10-17T13:35:33;102164.22;;;18.89;97.84
45523;BME280;31254;51.680;5.394;2022-10-17T13:38:26;102173.88;;;18.85;97.73
45523;BME280;31254;51.680;5.394;2022-10-17T13:40:54;102169.00;;;18.78;97.81
45523;BME280;31254;51.680;5.394;2022-10-17T13:43:36;102149.97;;;18.67;98.24
45523;BME280;31254;51.680;5.394;2022-10-17T13:46:05;102141.34;;;18.62;98.04
45523;BME280;31254;51.680;5.394;2022-10-17T13:48:56;102164.34;;;18.79;97.96
45523;BME280;31254;51.680;5.394;2022-10-17T13:51:25;102160.19;;;18.75;97.84
45523;BME280;31254;51.680;5.394;2022-10-17T13:53:53;102176.09;;;18.81;97.70
45523;BME280;31254;51.680;5.394;2022-10-17T13:56:26;102181.28;;;18.76;97.97
45523;BME280;31254;51.680;5.394;2022-10-17T13:59:01;102161.72;;;18.61;98.19
45523;BME280;31254;51.680;5.394;2022-10-17T14:01:30;102195.25;;;18.74;98.09
45523;BME280;31254;51.680;5.394;2022-10-17T14:03:58;102196.47;;;18.72;98.36
45523;BME280;31254;51.680;5.394;2022-10-17T14:06:43;102166.38;;;18.60;98.62
45523;BME280;31254;51.680;5.394;2022-10-17T14:09:17;102191.28;;;18.77;98.19
45523;BME280;31254;51.680;5.394;2022-10-17T14:11:58;102192.50;;;18.82;98.31
45523;BME280;31254;51.680;5.394;2022-10-17T14:14:27;102170.22;;;18.76;97.94
45523;BME280;31254;51.680;5.394;2022-10-17T14:16:55;102160.03;;;18.76;97.82
45523;BME280;31254;51.680;5.394;2022-10-17T14:19:28;102197.03;;;19.00;97.89
45523;BME280;31254;51.680;5.394;2022-10-17T14:22:22;102206.88;;;19.03;97.73
45523;BME280;31254;51.680;5.394;2022-10-17T14:24:50;102208.94;;;19.09;97.58
45523;BME280;31254;51.680;5.394;2022-10-17T14:27:33;102206.69;;;19.12;97.32
45523;BME280;31254;51.680;5.394;2022-10-17T14:30:04;102182.84;;;19.03;97.17
45523;BME280;31254;51.680;5.394;2022-10-17T14:32:35;102164.38;;;18.95;97.22
45523;BME280;31254;51.680;5.394;2022-10-17T14:35:04;102180.63;;;19.07;97.07
45523;BME280;31254;51.680;5.394;2022-10-17T14:37:52;102216.56;;;19.23;97.03
45523;BME280;31254;51.680;5.394;2022-10-17T14:40:27;102190.97;;;19.05;97.07
45523;BME280;31254;51.680;5.394;2022-10-17T14:43:02;102212.06;;;19.14;97.34
45523;BME280;31254;51.680;5.394;2022-10-17T14:45:34;102222.09;;;19.15;97.32
45523;BME280;31254;51.680;5.394;2022-10-17T14:48:15;102186.50;;;18.95;97.19
45523;BME280;31254;51.680;5.394;2022-10-17T14:53:35;102206.53;;;19.14;97.52
45523;BME280;31254;51.680;5.394;2022-10-17T14:56:17;102194.44;;;19.07;97.35